Raglesville, Indiana
Current Conditions -  °F | °C
As of 12:35 PM on Wednesday 26 Nov 2014 (Local Time) from KDCY Reporting Station
Clear Clear  
Wind Chill: 31°   Ceiling: Unl
Heat Index: 37°   Visibility: 10mi
Dew Point: 29°   Wind: 7mph
Humidity: 72%   Direction: 150°SSE
Pressure: 30.06"   Gusts: NA
Location:  38.8205°N, 86.9659°W
Report Text: KDCY 261835Z AUTO 15006KT 10SM CLR 03/M02 A3006 RMK AO2 T00261019
Loading
Personal Weather Stations






























Interactive Weather Map New forecast layout! Learn more

10-Day Weather Forecast

Advertisements
Track Severe Weather on mobile